Terminal Aerodrome Forecast
Issued by NWS

Current Version | Previous Version | Text Only | Print | Product List | Glossary On
Versions: 1 2 3 4 5 6 7 8 9 10 11 12 13
000
FTUS42 KTAE 022300
TAFABY
TAF
KABY 022329Z 0300/0324 00000KT P6SM VCTS SCT050CB BKN100
      TEMPO 0300/0302 VRB15G25KT 1SM TSRA BKN035CB
     FM030400 00000KT P6SM BKN250
     FM031400 08004KT P6SM FEW040
     FM031800 15007KT P6SM VCTS SCT050CB=

USA.gov is the U.S. government's official web portal to all federal, state and local government web resources and services.